Terminal Aerodrome Forecast
Issued by NWS

Home | Current Version | Previous Version | Text Only | Print | Product List | Glossary On
Versions: 1 2 3 4 5 6 7 8 9 10 11 12 13 14 15 16 17 18 19 20 21 22 23 24
000
FTUS42 KFFC 011100
TAFFTY
TAF
KFTY 011140Z 0112/0212 00000KT P6SM SCT150
     FM011400 VRB03KT P6SM SCT035 SCT150
     FM011800 24005KT P6SM SCT050 SCT150 PROB30 0121/0201 -TSRA
      BKN050CB
     FM020100 00000KT P6SM FEW060 SCT150=

USA.gov is the U.S. government's official web portal to all federal, state and local government web resources and services.